Latest Weather Observations for Holmes Reef

IDQ60801

Issued at 2:32 pm EST Friday 30 January 2015 (issued every 30 minutes, with the page automatically refreshed every 10 minutes)

About weather observations | Map of weather stations | Latest weather observations for QLD | Other Formats
Station Details ID: 200732 Name: HOLMES REEF Lat: -16.47 Lon: 147.87 Height: 1.9 m
Data from the previous 72 hours. | See also: Recent months at Holmes Reef
Date/Time
EST
Temp
°C
App
Temp
°C
Dew
Point
Rel
Hum
%
Delta-T
°C
Wind Press
QNH
hPa
Press
MSL
hPa
Rain
since 9 am
mm
Dir
 
Spd
km/h
Gust
km/h
Spd
kts
Gust
kts
30/02:30pm 30.3 - - - - SW 6 9 3 5 1004.3 - -
30/02:15pm 30.7 - - - - S 6 11 3 6 1004.5 1004.2 -
30/02:00pm 30.6 - - - - S 9 11 5 6 1004.5 - -
30/01:30pm 30.2 - - - - SSW 6 9 3 5 1004.8 - -
30/01:15pm 30.0 - - - - SSW 7 - 4 - - 1004.7 -
30/01:00pm 29.6 - - - - SSW 9 11 5 6 1005.1 - -
30/12:30pm 29.4 - - - - WSW 7 9 4 5 1005.3 - -
30/12:15pm 29.4 - - - - CALM 0 - 0 - - 1005.0 -
30/12:00pm 29.6 - - - - CALM 0 6 0 3 1005.3 - -
30/11:30am 29.8 - - - - CALM 0 6 0 3 1005.6 - -
30/11:15am 29.3 - - - - S 7 - 4 - - 1005.5 -
30/11:00am 29.8 - - - - SSW 9 11 5 6 1006.0 - -
30/10:30am 29.4 - - - - SSW 9 13 5 7 1006.2 - -
30/10:15am 29.0 - - - - SW 11 - 6 - - 1005.9 -
30/10:00am 29.1 - - - - W 11 13 6 7 1006.2 - -
30/09:30am 29.0 - - - - WSW 13 17 7 9 1006.3 - -
30/09:15am 29.0 - - - - WSW 17 - 9 - - 1006.1 -
30/09:00am 28.9 - - - - SW 17 20 9 11 1006.3 - -
30/08:30am 28.9 - - - - W 11 15 6 8 1006.3 - -
30/08:15am 28.5 - - - - WNW 19 - 10 - - 1006.0 -
30/08:00am 29.1 - - - - S 11 15 6 8 1006.3 - -
30/07:30am 28.8 - - - - SSW 13 17 7 9 1006.1 - -
30/07:15am 28.8 - - - - SSW 15 - 8 - - 1005.6 -
30/07:00am 28.8 - - - - SW 15 17 8 9 1005.6 - -
30/06:30am 28.7 - - - - WSW 17 19 9 10 1005.2 - -
30/06:15am 28.6 - - - - WSW 13 - 7 - - 1004.7 -
30/06:00am 28.7 - - - - WSW 15 20 8 11 1004.7 - -
30/05:30am 28.8 - - - - WSW 17 22 9 12 1004.4 - -
30/05:15am 28.6 - - - - W 19 - 10 - - 1004.0 -
30/05:00am 28.7 - - - - W 19 22 10 12 1004.2 - -
30/04:30am 28.7 - - - - W 19 20 10 11 1004.2 - -
30/04:15am 28.7 - - - - W 17 - 9 - - 1004.0 -
30/04:00am 28.8 - - - - W 15 19 8 10 1004.2 - -
30/03:30am 28.7 - - - - W 17 20 9 11 1004.2 - -
30/03:15am 28.7 - - - - W 13 - 7 - - 1003.8 -
30/03:00am 28.6 - - - - W 6 9 3 5 1004.2 - -
30/02:30am 28.6 - - - - NW 9 11 5 6 1004.3 - -
30/02:15am 28.6 - - - - WNW 9 - 5 - - 1004.0 -
30/02:00am 28.7 - - - - WNW 11 13 6 7 1004.3 - -
30/01:30am 28.6 - - - - WNW 7 9 4 5 1004.7 - -
30/01:15am 28.5 - - - - WNW 9 - 5 - - 1004.4 -
30/01:00am 28.6 - - - - WNW 9 11 5 6 1004.9 - -
30/12:30am 28.5 - - - - W 9 13 5 7 1004.9 - -
30/12:15am 28.4 - - - - W 9 - 5 - - 1004.8 -
30/12:00am 28.5 - - - - WNW 9 13 5 7 1005.1 - -
 
Date/Time
EST
Temp
°C
App
Temp
°C
Dew
Point
Rel
Hum
%
Delta-T
°C
Wind Press
QNH
hPa
Press
MSL
hPa
Rain
since 9 am
mm
Dir
 
Spd
km/h
Gust
km/h
Spd
kts
Gust
kts
29/11:30pm 28.6 - - - - CALM 0 2 0 1 1005.3 - -
29/11:15pm 28.8 - - - - WNW 6 - 3 - - 1005.1 -
29/11:00pm 28.7 - - - - S 4 9 2 5 1005.5 - -
29/10:30pm 28.8 - - - - CALM 0 6 0 3 1005.5 - -
29/10:15pm 28.9 - - - - SSE 2 - 1 - - 1005.1 -
29/10:00pm 28.9 - - - - CALM 0 0 0 0 1005.2 - -
29/09:30pm 28.9 - - - - CALM 0 6 0 3 1004.9 - -
29/09:15pm 28.9 - - - - CALM 0 - 0 - - 1004.6 -
29/09:00pm 28.9 - - - - S 6 7 3 4 1004.8 - -
29/08:30pm 29.0 - - - - SW 7 11 4 6 1004.8 - -
29/08:15pm 29.0 - - - - SSW 7 - 4 - - 1004.4 -
29/08:00pm 29.0 - - - - S 7 9 4 5 1004.6 - -
29/07:30pm 29.0 - - - - WSW 11 15 6 8 1004.1 - -
29/07:15pm 29.0 - - - - W 13 - 7 - - 1003.6 -
29/07:00pm 29.1 - - - - W 15 17 8 9 1003.8 - -
29/06:30pm 29.3 - - - - W 17 20 9 11 1003.5 - -
29/06:15pm 29.4 - - - - W 17 - 9 - - 1003.1 -
29/06:00pm 29.5 - - - - W 19 20 10 11 1003.2 - -
29/05:30pm 29.4 - - - - W 22 26 12 14 1002.8 - -
29/05:15pm 29.5 - - - - W 22 - 12 - - 1002.3 -
29/05:00pm 29.7 - - - - W 22 24 12 13 1002.4 - -
29/04:30pm 29.4 - - - - WNW 22 24 12 13 1002.0 - -
29/04:15pm 29.5 - - - - WNW 24 - 13 - - 1001.6 -
29/04:00pm 29.4 - - - - WNW 24 28 13 15 1001.8 - -
29/03:30pm 29.0 - - - - WNW 26 28 14 15 1001.9 - -
29/03:15pm 29.1 - - - - WNW 28 - 15 - - 1001.6 -
29/03:00pm 29.0 - - - - NW 28 30 15 16 1001.9 - -
29/02:30pm 29.0 - - - - WNW 26 28 14 15 1002.2 - -
29/02:15pm 29.1 - - - - WNW 22 - 12 - - 1002.1 -
29/02:00pm 29.0 - - - - WNW 22 26 12 14 1002.5 - -
29/01:30pm 29.1 - - - - WNW 19 22 10 12 1002.9 - -
29/01:15pm 29.1 - - - - WNW 20 - 11 - - 1002.7 -
29/01:00pm 29.1 - - - - WNW 19 22 10 12 1003.1 - -
29/12:30pm 29.2 - - - - WNW 19 20 10 11 1003.4 - -
29/12:15pm 29.2 - - - - WNW 19 - 10 - - 1003.2 -
29/12:00pm 29.1 - - - - WNW 19 22 10 12 1003.6 - -
29/11:30am 29.1 - - - - WNW 20 24 11 13 1003.8 - -
29/11:15am 29.1 - - - - WNW 20 - 11 - - 1003.4 -
29/11:00am 29.1 - - - - WNW 19 22 10 12 1003.6 - -
29/10:30am 29.1 - - - - WNW 20 24 11 13 1003.8 - -
29/10:15am 29.0 - - - - WNW 20 - 11 - - 1003.4 -
29/10:00am 29.0 - - - - WNW 22 24 12 13 1003.6 - -
29/09:30am 29.0 - - - - WNW 24 28 13 15 1003.3 - -
29/09:15am 29.0 - - - - NW 24 - 13 - - 1002.9 -
29/09:00am 29.0 - - - - WNW 24 30 13 16 1003.2 - -
29/08:30am 29.1 - - - - WNW 26 32 14 17 1003.0 - -
29/08:15am 29.2 - - - - WNW 28 - 15 - - 1002.5 -
29/08:00am 29.3 - - - - WNW 26 30 14 16 1002.8 - -
29/07:30am 29.3 - - - - WNW 28 32 15 17 1002.7 - -
29/07:15am 29.3 - - - - WNW 28 - 15 - - 1002.4 -
29/07:00am 29.1 - - - - W 28 32 15 17 1002.5 - -
29/06:30am 29.0 - - - - WNW 26 30 14 16 1001.9 - -
29/06:15am 29.0 - - - - WNW 24 - 13 - - 1001.4 -
29/06:00am 28.9 - - - - WNW 28 30 15 16 1001.5 - -
29/05:30am 28.8 - - - - WNW 33 39 18 21 1001.5 - -
29/05:15am 28.8 - - - - WNW 33 - 18 - - 1001.2 -
29/05:00am 28.8 - - - - WNW 33 39 18 21 1001.5 - -
29/04:30am 28.9 - - - - WNW 37 43 20 23 1001.4 - -
29/04:15am 29.0 - - - - WNW 35 - 19 - - 1001.0 -
29/04:00am 29.0 - - - - WNW 37 43 20 23 1001.3 - -
29/03:30am 29.0 - - - - WNW 35 43 19 23 1001.3 - -
29/03:15am 28.9 - - - - WNW 35 - 19 - - 1001.0 -
29/03:00am 28.9 - - - - WNW 37 43 20 23 1001.1 - -
29/02:30am 28.9 - - - - WNW 35 41 19 22 1001.2 - -
29/02:15am 28.8 - - - - WNW 33 - 18 - - 1000.9 -
29/02:00am 28.7 - - - - WNW 37 43 20 23 1001.2 - -
29/01:30am 28.8 - - - - WNW 35 41 19 22 1001.5 - -
29/01:15am 28.9 - - - - WNW 35 - 19 - - 1001.5 -
29/01:00am 28.8 - - - - WNW 35 39 19 21 1001.9 - -
29/12:30am 28.8 - - - - WNW 35 41 19 22 1002.3 - -
29/12:15am 28.9 - - - - WNW 33 - 18 - - 1002.1 -
29/12:00am 28.9 - - - - WNW 32 35 17 19 1002.6 - -
 
Date/Time
EST
Temp
°C
App
Temp
°C
Dew
Point
Rel
Hum
%
Delta-T
°C
Wind Press
QNH
hPa
Press
MSL
hPa
Rain
since 9 am
mm
Dir
 
Spd
km/h
Gust
km/h
Spd
kts
Gust
kts
28/11:30pm 28.9 - - - - NW 28 33 15 18 1002.5 - -
28/11:15pm 29.0 - - - - WNW 30 - 16 - - 1002.3 -
28/11:00pm 29.0 - - - - WNW 28 32 15 17 1002.8 - -
28/10:30pm 28.9 - - - - NW 28 30 15 16 1003.0 - -
28/10:15pm 28.9 - - - - NW 26 - 14 - - 1002.7 -
28/10:00pm 28.9 - - - - NW 26 28 14 15 1002.9 - -
28/09:30pm 28.9 - - - - NW 22 26 12 14 1002.8 - -
28/09:15pm 28.9 - - - - NW 24 - 13 - - 1002.5 -
28/09:00pm 29.0 - - - - WNW 20 24 11 13 1002.6 - -
28/08:30pm 29.0 - - - - NW 24 28 13 15 1002.4 - -
28/08:15pm 29.0 - - - - WNW 24 - 13 - - 1002.0 -
28/08:00pm 29.1 - - - - WNW 24 28 13 15 1002.2 - -
28/07:30pm 29.2 - - - - WNW 26 30 14 16 1001.7 - -
28/07:15pm 29.2 - - - - WNW 26 - 14 - - 1001.3 -
28/07:00pm 29.4 - - - - WNW 26 30 14 16 1001.5 - -
28/06:30pm 29.3 - - - - WNW 26 30 14 16 1001.1 - -
28/06:15pm 29.3 - - - - WNW 28 - 15 - - 1000.7 -
28/06:00pm 29.3 - - - - WNW 26 30 14 16 1000.8 - -
28/05:30pm 29.5 - - - - WNW 28 32 15 17 1000.3 - -
28/05:15pm 29.9 - - - - W 22 - 12 - - 1000.0 -
28/05:00pm 29.9 - - - - W 20 26 11 14 1000.1 - -
28/04:30pm 30.3 - - - - W 19 20 10 11 999.7 - -
28/04:15pm 30.2 - - - - W 19 - 10 - - 999.3 -
28/04:00pm 29.8 - - - - WNW 19 20 10 11 999.8 - -
28/03:30pm 29.6 - - - - WNW 20 24 11 13 999.9 - -
28/03:15pm 29.4 - - - - WNW 20 - 11 - - 999.5 -
28/03:00pm 29.4 - - - - WNW 20 24 11 13 999.8 - -
28/02:30pm 29.4 - - - - NW 22 26 12 14 1000.1 - -
28/02:15pm 29.2 - - - - NW 20 - 11 - - 999.8 -
28/02:00pm 29.1 - - - - NW 22 26 12 14 1000.2 - -
28/01:30pm 29.1 - - - - NW 20 24 11 13 1000.5 - -
28/01:15pm 29.1 - - - - WNW 22 - 12 - - 1000.4 -
28/01:00pm 29.1 - - - - WNW 20 24 11 13 1000.8 - -
28/12:30pm 29.2 - - - - WNW 22 26 12 14 1001.2 - -
28/12:15pm 29.2 - - - - WNW 20 - 11 - - 1001.0 -
28/12:00pm 29.3 - - - - WNW 17 20 9 11 1001.6 - -
28/11:30am 29.0 - - - - NW 17 20 9 11 1001.9 - -
28/11:15am 29.2 - - - - NW 17 - 9 - - 1001.7 -
28/11:00am 29.0 - - - - WNW 17 17 9 9 1002.1 - -
28/10:30am 29.1 - - - - WNW 17 19 9 10 1002.0 - -
28/10:15am 28.9 - - - - WNW 17 - 9 - - 1001.7 -
28/10:00am 29.0 - - - - WNW 17 19 9 10 1001.9 - -
28/09:30am 28.9 - - - - WNW 19 24 10 13 1002.1 - -
28/09:15am 28.9 - - - - WNW 20 - 11 - - 1002.0 -
28/09:00am 28.8 - - - - WNW 20 22 11 12 1002.2 - -
28/08:30am 28.9 - - - - W 20 24 11 13 1002.0 - -
28/08:15am 28.9 - - - - W 22 - 12 - - 1001.6 -
28/08:00am 28.8 - - - - W 22 28 12 15 1001.8 - -
28/07:30am 28.8 - - - - W 26 30 14 16 1001.7 - -
28/07:15am 28.7 - - - - W 24 - 13 - - 1001.2 -
28/07:00am 28.9 - - - - W 24 28 13 15 1001.4 - -
28/06:30am 28.8 - - - - W 24 30 13 16 1001.3 - -
28/06:15am 28.8 - - - - W 32 - 17 - - 1000.8 -
28/06:00am 28.7 - - - - WNW 33 37 18 20 1000.9 - -
28/05:30am 28.8 - - - - W 32 35 17 19 1000.9 - -
28/05:15am 28.9 - - - - W 32 - 17 - - 1000.6 -
28/05:00am 28.9 - - - - W 32 35 17 19 1000.8 - -
28/04:30am 28.8 - - - - WNW 30 32 16 17 1000.8 - -
28/04:15am 28.8 - - - - WNW 28 - 15 - - 1000.3 -
28/04:00am 28.8 - - - - WNW 28 32 15 17 1000.5 - -
28/03:30am 28.7 - - - - WNW 30 32 16 17 1000.3 - -
28/03:15am 28.7 - - - - WNW 30 - 16 - - 999.8 -
28/03:00am 28.7 - - - - WNW 30 35 16 19 1000.2 - -
28/02:30am 28.7 - - - - WNW 32 37 17 20 1000.3 - -
28/02:15am 28.8 - - - - WNW 33 - 18 - - 1000.1 -
28/02:00am 28.8 - - - - WNW 33 39 18 21 1000.6 - -
28/01:30am 28.8 - - - - WNW 30 33 16 18 1000.8 - -
28/01:15am 28.7 - - - - WNW 32 - 17 - - 1000.5 -
28/01:00am 28.7 - - - - WNW 28 35 15 19 1001.1 - -
28/12:30am 28.9 - - - - WNW 30 33 16 18 1001.8 - -
28/12:15am 28.9 - - - - NW 30 - 16 - - 1001.7 -
28/12:00am 29.0 - - - - NW 32 37 17 20 1002.2 - -
 
Date/Time
EST
Temp
°C
App
Temp
°C
Dew
Point
Rel
Hum
%
Delta-T
°C
Wind Press
QNH
hPa
Press
MSL
hPa
Rain
since 9 am
mm
Dir
 
Spd
km/h
Gust
km/h
Spd
kts
Gust
kts
27/11:30pm 28.9 - - - - NW 28 32 15 17 1002.6 - -
27/11:15pm 29.0 - - - - NW 28 - 15 - - 1002.6 -
27/11:00pm 29.0 - - - - NW 30 33 16 18 1003.0 - -
27/10:30pm 29.0 - - - - WNW 32 35 17 19 1003.3 - -
27/10:15pm 29.0 - - - - WNW 32 - 17 - - 1003.1 -
27/10:00pm 29.0 - - - - WNW 28 32 15 17 1003.5 - -
27/09:30pm 29.1 - - - - NW 24 28 13 15 1003.3 - -
27/09:15pm 29.2 - - - - NW 24 - 13 - - 1002.9 -
27/09:00pm 29.3 - - - - NW 24 28 13 15 1003.2 - -
27/08:30pm 29.1 - - - - NW 20 24 11 13 1002.9 - -
27/08:15pm 29.2 - - - - NW 19 - 10 - - 1002.6 -
27/08:00pm 29.2 - - - - NW 17 19 9 10 1002.7 - -
27/07:30pm 29.2 - - - - WNW 17 17 9 9 1002.4 - -
27/07:15pm 29.0 - - - - WNW 17 - 9 - - 1002.0 -
27/07:00pm 29.2 - - - - WNW 19 20 10 11 1002.2 - -
27/06:30pm 29.1 - - - - WNW 20 22 11 12 1001.9 - -
27/06:15pm 29.3 - - - - WNW 22 - 12 - - 1001.4 -
27/06:00pm 29.1 - - - - WNW 20 24 11 13 1001.4 - -
27/05:30pm 29.1 - - - - WNW 20 24 11 13 1001.2 - -
27/05:15pm 29.2 - - - - WNW 22 - 12 - - 1000.7 -
27/05:00pm 29.3 - - - - WNW 22 24 12 13 1000.7 - -
27/04:30pm 29.3 - - - - WNW 22 24 12 13 1000.6 - -
27/04:15pm 29.3 - - - - WNW 24 - 13 - - 1000.3 -
27/04:00pm 29.4 - - - - WNW 22 26 12 14 1000.7 - -
27/03:30pm 29.5 - - - - W 24 28 13 15 1001.0 - -
27/03:15pm 29.5 - - - - WNW 22 - 12 - - 1000.8 -
27/03:00pm 29.4 - - - - WNW 24 28 13 15 1001.6 - -

Other Formats:

Comma delimited format used in spreadsheet applications
http://www.bom.gov.au/fwo/IDQ60801/IDQ60801.94289.axf

JavaScript Object Notation format (JSON) in row-major order
http://www.bom.gov.au/fwo/IDQ60801/IDQ60801.94289.json